createdAt,value
2019-05-13T00:02:14.884Z,95.70
2019-05-13T00:05:16.217Z,95.70
2019-05-13T00:08:17.817Z,95.80
2019-05-13T00:11:19.761Z,95.60
2019-05-13T00:14:21.315Z,95.20
2019-05-13T00:17:23.715Z,95.30
2019-05-13T00:20:25.077Z,95.40
2019-05-13T00:23:26.546Z,95.30
2019-05-13T00:26:27.796Z,94.80
2019-05-13T00:29:29.686Z,94.60
2019-05-13T00:32:30.936Z,94.70
2019-05-13T00:35:33.955Z,94.80
2019-05-13T00:38:35.311Z,94.70
2019-05-13T00:41:36.983Z,94.50
2019-05-13T00:44:38.376Z,94.40
2019-05-13T00:47:39.848Z,94.50
2019-05-13T00:50:41.106Z,94.50
2019-05-13T00:53:44.212Z,93.70
2019-05-13T00:56:45.584Z,93.70
2019-05-13T00:59:47.469Z,93.80
2019-05-13T01:02:48.717Z,93.60
2019-05-13T01:05:50.310Z,93.80
2019-05-13T01:08:53.574Z,94.00
2019-05-13T01:11:55.768Z,94.10
2019-05-13T01:14:57.112Z,94.40
2019-05-13T01:17:58.585Z,94.40
2019-05-13T01:20:59.801Z,94.40
2019-05-13T01:24:03.493Z,94.60
2019-05-13T01:27:04.343Z,93.80
2019-05-13T01:30:05.861Z,93.80
2019-05-13T01:33:07.086Z,94.30
2019-05-13T01:36:08.505Z,94.90
2019-05-13T01:39:09.825Z,95.80
2019-05-13T01:42:13.659Z,96.70
2019-05-13T01:45:14.289Z,96.20
2019-05-13T01:48:15.466Z,95.00
2019-05-13T01:51:16.854Z,95.20
2019-05-13T01:54:18.102Z,95.90
2019-05-13T01:57:19.477Z,95.30
2019-05-13T02:00:20.715Z,95.10
2019-05-13T02:03:24.385Z,95.30
2019-05-13T02:06:25.214Z,95.80
2019-05-13T02:09:27.233Z,95.80
2019-05-13T02:12:30.579Z,95.90
2019-05-13T02:15:33.751Z,95.80
2019-05-13T02:18:35.029Z,95.70
2019-05-13T02:21:36.481Z,94.90
2019-05-13T02:24:37.829Z,94.50
2019-05-13T02:27:39.201Z,94.60
2019-05-13T02:30:40.441Z,94.70
2019-05-13T02:33:42.348Z,94.90
2019-05-13T02:36:44.080Z,95.30
2019-05-13T02:39:45.381Z,95.80
2019-05-13T02:42:46.622Z,95.40
2019-05-13T02:45:48.042Z,95.40
2019-05-13T02:48:52.567Z,96.00
2019-05-13T02:51:54.655Z,97.00
2019-05-13T02:54:55.606Z,97.10
2019-05-13T02:57:57.323Z,97.60
2019-05-13T03:00:58.587Z,97.90
2019-05-13T03:04:02.735Z,98.20
2019-05-13T03:07:03.316Z,98.50
2019-05-13T03:10:05.504Z,98.30
2019-05-13T03:13:08.625Z,99.00
2019-05-13T03:16:17.847Z,98.90
2019-05-13T03:19:22.381Z,98.90
2019-05-13T03:22:22.731Z,99.10
2019-05-13T03:25:24.169Z,99.00
2019-05-13T03:28:25.413Z,98.70
2019-05-13T03:31:27.144Z,98.60
2019-05-13T03:34:28.476Z,98.90
2019-05-13T03:37:34.496Z,99.00
2019-05-13T03:40:33.138Z,99.00
2019-05-13T03:43:34.677Z,99.10
2019-05-13T03:46:37.729Z,98.90
2019-05-13T03:49:42.201Z,98.90
2019-05-13T03:52:43.431Z,99.00
2019-05-13T03:55:47.415Z,98.80
2019-05-13T03:58:48.629Z,98.70
2019-05-13T04:01:52.434Z,98.70
2019-05-13T04:04:53.379Z,99.00
2019-05-13T04:07:55.147Z,98.70
2019-05-13T04:10:56.415Z,98.30
2019-05-13T04:13:58.289Z,98.90
2019-05-13T04:17:01.899Z,98.20
2019-05-13T04:20:03.272Z,98.30
2019-05-13T04:23:04.609Z,98.50
2019-05-13T04:29:37.538Z,98.00
2019-05-13T04:32:38.796Z,97.50
2019-05-13T04:35:42.614Z,97.60
2019-05-13T04:38:44.592Z,97.90
2019-05-13T04:41:46.267Z,98.00
2019-05-13T04:44:47.842Z,97.90
2019-05-13T04:47:52.551Z,98.10
2019-05-13T04:50:53.236Z,98.00
2019-05-13T04:53:57.338Z,98.20
2019-05-13T04:56:58.430Z,98.00
2019-05-13T05:00:03.684Z,97.80
2019-05-13T05:03:22.955Z,97.80
2019-05-13T05:06:26.313Z,97.80
2019-05-13T05:10:13.256Z,97.60
2019-05-13T05:13:18.030Z,97.80
2019-05-13T05:16:46.130Z,97.90
2019-05-13T05:20:03.193Z,98.60
2019-05-13T05:23:12.842Z,98.90
2019-05-13T05:26:31.307Z,98.80
2019-05-13T05:29:53.795Z,99.10
2019-05-13T05:33:14.114Z,99.10
2019-05-13T05:36:46.663Z,99.40
2019-05-13T05:39:48.134Z,99.50
2019-05-13T05:42:51.669Z,99.50
2019-05-13T05:45:52.602Z,99.30
2019-05-13T05:48:53.833Z,99.00
2019-05-13T05:52:05.056Z,98.70
2019-05-13T05:55:06.274Z,98.80
2019-05-13T05:58:08.429Z,99.00
2019-05-13T06:01:11.836Z,99.00
2019-05-13T06:04:12.825Z,98.70
2019-05-13T06:07:14.022Z,98.90
2019-05-13T06:10:15.993Z,98.90
2019-05-13T06:13:17.187Z,98.80
2019-05-13T06:16:18.899Z,99.30
2019-05-13T06:19:22.338Z,98.40
2019-05-13T06:22:23.734Z,98.30
2019-05-13T06:25:24.972Z,98.50
2019-05-13T06:28:26.235Z,98.80
2019-05-13T06:31:28.279Z,98.60
2019-05-13T06:34:32.740Z,98.70
2019-05-13T06:37:33.590Z,98.30
2019-05-13T06:40:35.714Z,98.30
2019-05-13T06:43:37.335Z,98.80
2019-05-13T06:46:38.916Z,98.10
2019-05-13T06:49:42.850Z,97.20
2019-05-13T06:52:43.603Z,97.70
2019-05-13T06:55:45.056Z,97.80
2019-05-13T06:58:46.289Z,98.10
2019-05-13T07:01:47.845Z,98.00
2019-05-13T07:04:51.488Z,98.30
2019-05-13T07:07:52.388Z,97.50
2019-05-13T07:10:54.092Z,97.10
2019-05-13T07:14:16.915Z,96.80
2019-05-13T07:17:18.199Z,97.60
2019-05-13T07:20:22.651Z,96.70
2019-05-13T07:23:22.900Z,96.40
2019-05-13T07:26:24.178Z,96.40
2019-05-13T07:29:25.569Z,96.60
2019-05-13T07:32:28.517Z,96.40
2019-05-13T07:35:32.302Z,96.00
2019-05-13T07:38:33.267Z,95.90
2019-05-13T07:41:39.276Z,95.40
2019-05-13T07:44:37.684Z,95.80
2019-05-13T07:47:41.482Z,95.80
2019-05-13T07:50:53.568Z,95.80
2019-05-13T07:53:45.722Z,95.90
2019-05-13T07:56:47.004Z,95.60
2019-05-13T07:59:48.723Z,95.60
2019-05-13T08:02:52.331Z,96.00
2019-05-13T08:05:53.382Z,95.30
2019-05-13T08:08:54.755Z,95.20
2019-05-13T08:12:06.505Z,95.70
2019-05-13T08:14:59.163Z,95.30
2019-05-13T08:18:01.989Z,94.60
2019-05-13T08:21:03.571Z,94.40
2019-05-13T08:24:05.017Z,93.90
2019-05-13T08:27:06.258Z,93.30
2019-05-13T08:30:07.897Z,93.60
2019-05-13T08:33:12.476Z,94.10
2019-05-13T08:36:14.175Z,93.70
2019-05-13T08:39:15.431Z,92.80
2019-05-13T08:42:20.118Z,91.50
2019-05-13T08:45:22.396Z,92.50
2019-05-13T08:48:24.161Z,91.40
2019-05-13T08:51:25.428Z,91.80
2019-05-13T08:54:26.853Z,91.70
2019-05-13T08:57:28.091Z,90.80
2019-05-13T09:00:52.513Z,90.50
2019-05-13T09:03:53.190Z,91.30
2019-05-13T09:06:54.495Z,91.90
2019-05-13T09:09:55.842Z,92.50
2019-05-13T09:12:57.944Z,91.30
2019-05-13T09:15:59.266Z,91.00
2019-05-13T09:19:03.644Z,91.10
2019-05-13T09:22:03.831Z,91.40
2019-05-13T09:25:05.286Z,91.00
2019-05-13T09:28:06.549Z,89.90
2019-05-13T09:31:08.034Z,87.20
2019-05-13T09:34:11.899Z,90.00
2019-05-13T09:37:12.943Z,89.10
2019-05-13T09:40:14.213Z,89.10
2019-05-13T09:43:15.666Z,88.40
2019-05-13T09:46:17.145Z,89.70
2019-05-13T09:49:20.847Z,89.60
2019-05-13T09:52:22.670Z,87.70
2019-05-13T09:55:28.956Z,87.70
2019-05-13T09:58:29.667Z,88.10
2019-05-13T10:01:31.980Z,87.80
2019-05-13T10:04:33.258Z,88.30
2019-05-13T10:07:34.712Z,87.10
2019-05-13T10:10:36.146Z,87.60
2019-05-13T10:13:38.056Z,86.10
2019-05-13T10:16:42.092Z,85.90
2019-05-13T10:19:42.606Z,86.90
2019-05-13T10:22:43.860Z,84.10
2019-05-13T10:25:46.387Z,83.00
2019-05-13T10:28:48.011Z,82.40
2019-05-13T10:31:51.392Z,82.30
2019-05-13T10:34:53.293Z,81.60
2019-05-13T10:37:54.735Z,84.40
2019-05-13T10:40:56.237Z,84.60
2019-05-13T10:43:57.688Z,85.50
2019-05-13T10:46:58.937Z,83.50
2019-05-13T10:50:02.787Z,84.00
2019-05-13T10:53:03.482Z,84.20
2019-05-13T10:56:04.825Z,85.10
2019-05-13T10:59:06.274Z,83.30
2019-05-13T11:02:07.506Z,82.90
2019-05-13T11:05:08.871Z,82.80
2019-05-13T11:08:10.107Z,83.10
2019-05-13T11:14:15.832Z,87.60
2019-05-13T11:17:23.163Z,86.40
2019-05-13T11:20:22.073Z,85.40
2019-05-13T11:23:23.745Z,87.40
2019-05-13T11:26:24.969Z,87.30
2019-05-13T11:29:26.351Z,85.90
2019-05-13T11:32:27.599Z,85.40
2019-05-13T11:35:31.555Z,86.50
2019-05-13T11:38:32.900Z,83.90
2019-05-13T11:41:34.598Z,85.30
2019-05-13T11:44:35.855Z,84.40
2019-05-13T11:47:37.405Z,84.90
2019-05-13T11:50:38.645Z,82.50
2019-05-13T11:53:41.688Z,83.70
2019-05-13T11:56:49.479Z,81.80
2019-05-13T11:59:46.445Z,80.60
2019-05-13T12:02:53.830Z,79.20
2019-05-13T12:05:53.835Z,80.70
2019-05-13T12:08:55.370Z,80.10
2019-05-13T12:11:56.989Z,80.00
2019-05-13T12:15:22.408Z,81.50
2019-05-13T12:18:02.882Z,80.90
2019-05-13T12:21:04.570Z,81.60
2019-05-13T12:24:10.424Z,82.50
2019-05-13T12:27:09.260Z,82.60
2019-05-13T12:30:12.650Z,84.10
2019-05-13T12:33:14.151Z,82.10
2019-05-13T12:36:18.322Z,82.80
2019-05-13T12:39:22.915Z,82.70
2019-05-13T12:42:23.285Z,83.40
2019-05-13T12:45:24.681Z,82.20
2019-05-13T12:48:25.969Z,83.00
2019-05-13T12:51:27.451Z,83.30
2019-05-13T12:54:28.690Z,82.60
2019-05-13T12:57:32.450Z,85.20
2019-05-13T13:00:33.332Z,85.80
2019-05-13T13:03:34.696Z,85.60
2019-05-13T13:06:41.652Z,83.90
2019-05-13T13:09:43.250Z,83.10
2019-05-13T13:12:43.363Z,82.40
2019-05-13T13:15:48.655Z,82.00
2019-05-13T13:18:47.908Z,83.10
2019-05-13T13:21:53.014Z,82.30
2019-05-13T13:24:56.968Z,82.80
2019-05-13T13:28:09.995Z,84.50
2019-05-13T13:31:03.791Z,86.80
2019-05-13T13:34:11.265Z,87.40
2019-05-13T13:37:06.426Z,88.70
2019-05-13T13:40:08.348Z,88.00
2019-05-13T13:43:12.332Z,89.20
2019-05-13T13:49:16.152Z,88.90
2019-05-13T13:52:17.969Z,88.20
2019-05-13T13:55:25.514Z,88.90
2019-05-13T13:58:26.830Z,88.00
2019-05-13T14:01:33.329Z,86.60
2019-05-13T14:04:34.468Z,86.50
2019-05-13T14:07:02.763Z,85.60
2019-05-13T14:07:13.386Z,89.20
2019-05-13T14:07:38.784Z,85.80
2019-05-13T14:10:43.581Z,85.40
2019-05-13T14:13:47.151Z,85.00
2019-05-13T14:16:52.027Z,84.60
2019-05-13T14:19:55.703Z,83.60
2019-05-13T14:22:58.411Z,84.60
2019-05-13T14:25:59.886Z,84.60
2019-05-13T14:29:02.817Z,83.50
2019-05-13T14:32:04.281Z,83.90
2019-05-13T14:35:08.696Z,82.10
2019-05-13T14:38:11.864Z,82.20
2019-05-13T14:41:14.181Z,83.20
2019-05-13T14:44:15.968Z,83.80
2019-05-13T14:47:17.831Z,84.00
2019-05-13T14:50:21.972Z,82.90
2019-05-13T14:53:25.023Z,83.90
2019-05-13T14:56:32.333Z,84.90
2019-05-13T14:59:35.995Z,85.10
2019-05-13T15:02:39.204Z,85.10
2019-05-13T15:05:42.936Z,84.50
2019-05-13T15:08:44.859Z,84.20
2019-05-13T15:11:47.296Z,85.10
2019-05-13T15:14:48.679Z,85.50
2019-05-13T15:17:52.810Z,85.80
2019-05-13T15:20:54.304Z,86.40
2019-05-13T15:23:56.623Z,86.00
2019-05-13T15:26:58.497Z,86.30
2019-05-13T15:30:14.447Z,86.00
2019-05-13T15:33:04.451Z,85.90
2019-05-13T15:36:05.938Z,86.50
2019-05-13T15:39:07.704Z,86.00
2019-05-13T15:42:12.027Z,86.70
2019-05-13T15:45:14.146Z,85.90
2019-05-13T15:48:16.409Z,85.70
2019-05-13T15:51:19.096Z,85.60
2019-05-13T15:54:22.964Z,85.80
2019-05-13T15:57:25.465Z,85.60
2019-05-13T16:00:28.696Z,85.00
2019-05-13T16:03:32.561Z,84.50
2019-05-13T16:06:34.884Z,84.20
2019-05-13T16:09:36.135Z,84.00
2019-05-13T16:12:37.679Z,84.00
2019-05-13T16:15:41.475Z,83.80
2019-05-13T16:18:43.463Z,84.30
2019-05-13T16:21:44.793Z,84.40
2019-05-13T16:24:46.271Z,84.80
2019-05-13T16:27:52.024Z,84.50
2019-05-13T16:30:54.137Z,85.30
2019-05-13T16:33:56.044Z,84.80
2019-05-13T16:36:58.330Z,85.50
2019-05-13T16:40:01.118Z,86.60
2019-05-13T16:43:02.472Z,86.50
2019-05-13T16:46:07.097Z,86.70
2019-05-13T16:49:08.244Z,86.70
2019-05-13T16:52:14.911Z,86.60
2019-05-13T16:55:16.320Z,87.60
2019-05-13T16:58:24.469Z,87.50
2019-05-13T17:01:25.400Z,88.00
2019-05-13T17:04:26.786Z,87.90
2019-05-13T17:07:28.384Z,88.70
2019-05-13T17:10:31.572Z,88.90
2019-05-13T17:13:37.352Z,89.30
2019-05-13T17:16:41.695Z,88.80
2019-05-13T17:19:43.494Z,89.60
2019-05-13T17:22:46.226Z,89.90
2019-05-13T17:25:47.603Z,90.10
2019-05-13T17:28:51.790Z,89.80
2019-05-13T17:31:54.862Z,90.10
2019-05-13T17:34:56.512Z,90.20
2019-05-13T17:38:01.962Z,90.10
2019-05-13T17:41:12.062Z,90.10
2019-05-13T17:44:14.311Z,90.20
2019-05-13T17:47:16.304Z,90.20
2019-05-13T17:50:18.192Z,90.10
2019-05-13T17:53:21.520Z,90.20
2019-05-13T17:56:24.867Z,90.30
2019-05-13T17:59:28.099Z,90.40
2019-05-13T18:02:31.344Z,90.50
2019-05-13T18:05:32.663Z,89.50
2019-05-13T18:08:34.363Z,90.00
2019-05-13T18:11:35.916Z,90.20
2019-05-13T18:14:37.176Z,90.80
2019-05-13T18:17:38.686Z,90.70
2019-05-13T18:20:41.522Z,90.50
2019-05-13T18:23:43.056Z,90.80
2019-05-13T18:26:45.007Z,91.10
2019-05-13T18:29:46.754Z,91.20
2019-05-13T18:32:48.791Z,91.50
2019-05-13T18:35:52.427Z,91.80
2019-05-13T18:38:54.247Z,92.10
2019-05-13T18:41:55.539Z,92.30
2019-05-13T18:44:57.608Z,92.70
2019-05-13T18:48:01.564Z,92.80
2019-05-13T18:51:03.623Z,93.20
2019-05-13T18:54:05.101Z,93.30
2019-05-13T18:57:06.525Z,93.10
2019-05-13T19:00:08.069Z,93.40
2019-05-13T19:03:12.447Z,93.70
2019-05-13T19:06:13.825Z,93.80
2019-05-13T19:09:16.341Z,93.90
2019-05-13T19:12:17.707Z,94.00
2019-05-13T19:15:21.145Z,94.10
2019-05-13T19:18:24.257Z,94.30
2019-05-13T19:21:26.096Z,94.40
2019-05-13T19:24:27.374Z,94.40
2019-05-13T19:27:28.909Z,94.30
2019-05-13T19:30:31.835Z,94.30
2019-05-13T19:33:34.780Z,94.20
2019-05-13T19:36:36.599Z,93.90
2019-05-13T19:39:39.955Z,93.80
2019-05-13T19:42:42.348Z,93.00
2019-05-13T19:45:47.174Z,92.00
2019-05-13T19:48:52.050Z,91.70
2019-05-13T19:51:54.809Z,91.40
2019-05-13T19:54:56.964Z,90.70
2019-05-13T19:58:01.730Z,90.70
2019-05-13T20:01:03.885Z,90.50
2019-05-13T20:04:05.667Z,90.70
2019-05-13T20:07:07.777Z,91.10
2019-05-13T20:10:11.895Z,91.30
2019-05-13T20:13:17.771Z,91.40
2019-05-13T20:16:18.999Z,91.60
2019-05-13T20:19:22.364Z,91.70
2019-05-13T20:22:24.830Z,91.50
2019-05-13T20:25:27.079Z,91.70
2019-05-13T20:28:28.395Z,91.80
2019-05-13T20:31:29.652Z,91.70
2019-05-13T20:34:31.828Z,91.40
2019-05-13T20:37:33.478Z,91.60
2019-05-13T20:40:34.843Z,91.90
2019-05-13T20:43:36.225Z,91.90
2019-05-13T20:46:42.274Z,91.90
2019-05-13T20:49:42.992Z,91.80
2019-05-13T20:52:44.716Z,91.70
2019-05-13T20:55:45.955Z,91.50
2019-05-13T20:58:51.355Z,91.70
2019-05-13T21:01:52.531Z,91.90
2019-05-13T21:04:54.042Z,91.90
2019-05-13T21:07:55.290Z,91.90
2019-05-13T21:10:57.183Z,91.80
2019-05-13T21:13:58.427Z,92.00
2019-05-13T21:17:01.422Z,92.20
2019-05-13T21:20:18.541Z,91.90
2019-05-13T21:23:11.270Z,92.00
2019-05-13T21:26:15.408Z,92.10
2019-05-13T21:29:16.098Z,92.20
2019-05-13T21:32:17.832Z,92.10
2019-05-13T21:35:21.247Z,92.20
2019-05-13T21:38:22.555Z,92.20
2019-05-13T21:41:24.031Z,92.40
2019-05-13T21:44:25.398Z,92.40
2019-05-13T21:47:26.786Z,92.70
2019-05-13T21:50:36.134Z,92.60
2019-05-13T21:53:32.642Z,92.70
2019-05-13T21:56:34.128Z,93.00
2019-05-13T21:59:35.446Z,92.80
2019-05-13T22:02:36.817Z,92.90
2019-05-13T22:05:38.515Z,93.00
2019-05-13T22:08:41.273Z,93.00
2019-05-13T22:11:42.852Z,93.20
2019-05-13T22:14:44.129Z,93.10
2019-05-13T22:17:45.383Z,93.20
2019-05-13T22:20:50.404Z,93.00
2019-05-13T22:23:51.747Z,93.00
2019-05-13T22:26:53.410Z,93.10
2019-05-13T22:29:54.671Z,92.90
2019-05-13T22:32:55.951Z,92.90
2019-05-13T22:35:57.233Z,93.00
2019-05-13T22:38:58.498Z,93.10
2019-05-13T22:42:01.637Z,93.10
2019-05-13T22:45:03.599Z,93.00
2019-05-13T22:48:05.279Z,93.10
2019-05-13T22:51:06.734Z,93.20
2019-05-13T22:54:08.327Z,93.20
2019-05-13T22:57:11.937Z,93.30
2019-05-13T23:00:13.531Z,93.50
2019-05-13T23:03:15.084Z,93.50
2019-05-13T23:06:16.516Z,93.40
2019-05-13T23:09:17.888Z,93.50
2019-05-13T23:12:21.266Z,93.40
2019-05-13T23:15:22.677Z,93.60
2019-05-13T23:18:24.119Z,93.50
2019-05-13T23:21:25.375Z,93.70
2019-05-13T23:24:27.631Z,93.80
2019-05-13T23:27:29.387Z,93.50
2019-05-13T23:30:31.220Z,93.40
2019-05-13T23:33:32.602Z,93.60
2019-05-13T23:36:34.072Z,93.30
2019-05-13T23:39:35.340Z,93.10
2019-05-13T23:42:37.111Z,93.10
2019-05-13T23:45:38.581Z,92.90
2019-05-13T23:48:41.375Z,92.80
2019-05-13T23:51:42.679Z,92.40
2019-05-13T23:54:44.163Z,92.20
2019-05-13T23:57:45.449Z,92.20
